sensor_id;sensor_type;location;lat;lon;timestamp;P1;durP1;ratioP1;P2;durP2;ratioP2
20855;SDS011;63058;49.424;8.420;2023-02-28T00:00:10;1.53;;;1.00;;
20855;SDS011;63058;49.424;8.420;2023-02-28T00:02:38;1.20;;;1.10;;
20855;SDS011;63058;49.424;8.420;2023-02-28T00:07:40;2.00;;;1.07;;
20855;SDS011;63058;49.424;8.420;2023-02-28T00:10:07;1.73;;;1.10;;
20855;SDS011;63058;49.424;8.420;2023-02-28T00:12:35;1.30;;;0.93;;
20855;SDS011;63058;49.424;8.420;2023-02-28T00:15:01;1.77;;;0.90;;
20855;SDS011;63058;49.424;8.420;2023-02-28T00:17:30;1.97;;;1.00;;
20855;SDS011;63058;49.424;8.420;2023-02-28T00:19:56;2.40;;;1.10;;
20855;SDS011;63058;49.424;8.420;2023-02-28T00:22:29;1.53;;;0.90;;
20855;SDS011;63058;49.424;8.420;2023-02-28T00:24:55;2.67;;;1.20;;
20855;SDS011;63058;49.424;8.420;2023-02-28T00:27:21;1.67;;;1.10;;
20855;SDS011;63058;49.424;8.420;2023-02-28T00:29:47;2.07;;;1.13;;
20855;SDS011;63058;49.424;8.420;2023-02-28T00:32:13;2.30;;;1.17;;
20855;SDS011;63058;49.424;8.420;2023-02-28T00:34:38;2.27;;;1.00;;
20855;SDS011;63058;49.424;8.420;2023-02-28T00:37:05;1.67;;;0.90;;
20855;SDS011;63058;49.424;8.420;2023-02-28T00:39:33;2.30;;;1.13;;
20855;SDS011;63058;49.424;8.420;2023-02-28T00:41:59;1.50;;;1.00;;
20855;SDS011;63058;49.424;8.420;2023-02-28T00:44:25;1.90;;;1.13;;
20855;SDS011;63058;49.424;8.420;2023-02-28T00:46:51;2.10;;;1.07;;
20855;SDS011;63058;49.424;8.420;2023-02-28T00:49:18;1.73;;;1.00;;
20855;SDS011;63058;49.424;8.420;2023-02-28T00:51:45;2.23;;;1.20;;
20855;SDS011;63058;49.424;8.420;2023-02-28T00:54:11;1.57;;;1.00;;
20855;SDS011;63058;49.424;8.420;2023-02-28T00:56:36;3.40;;;1.43;;
20855;SDS011;63058;49.424;8.420;2023-02-28T00:59:02;1.80;;;0.87;;
20855;SDS011;63058;49.424;8.420;2023-02-28T01:01:28;1.77;;;1.10;;
20855;SDS011;63058;49.424;8.420;2023-02-28T01:03:53;2.17;;;1.30;;
20855;SDS011;63058;49.424;8.420;2023-02-28T01:06:19;2.30;;;1.20;;
20855;SDS011;63058;49.424;8.420;2023-02-28T01:08:44;5.27;;;1.23;;
20855;SDS011;63058;49.424;8.420;2023-02-28T01:11:10;3.43;;;1.37;;
20855;SDS011;63058;49.424;8.420;2023-02-28T01:13:39;1.97;;;1.00;;
20855;SDS011;63058;49.424;8.420;2023-02-28T01:16:04;1.53;;;1.10;;
20855;SDS011;63058;49.424;8.420;2023-02-28T01:18:30;2.67;;;1.30;;
20855;SDS011;63058;49.424;8.420;2023-02-28T01:20:56;2.50;;;1.77;;
20855;SDS011;63058;49.424;8.420;2023-02-28T01:23:22;1.87;;;1.30;;
20855;SDS011;63058;49.424;8.420;2023-02-28T01:25:48;1.70;;;1.20;;
20855;SDS011;63058;49.424;8.420;2023-02-28T01:28:17;2.53;;;1.30;;
20855;SDS011;63058;49.424;8.420;2023-02-28T01:30:47;1.93;;;1.30;;
20855;SDS011;63058;49.424;8.420;2023-02-28T01:33:14;2.40;;;1.40;;
20855;SDS011;63058;49.424;8.420;2023-02-28T01:35:39;2.47;;;1.30;;
20855;SDS011;63058;49.424;8.420;2023-02-28T01:38:05;1.67;;;1.10;;
20855;SDS011;63058;49.424;8.420;2023-02-28T01:40:30;2.70;;;1.47;;
20855;SDS011;63058;49.424;8.420;2023-02-28T01:42:56;2.07;;;1.70;;
20855;SDS011;63058;49.424;8.420;2023-02-28T01:45:26;1.90;;;1.57;;
20855;SDS011;63058;49.424;8.420;2023-02-28T01:47:56;2.63;;;1.40;;
20855;SDS011;63058;49.424;8.420;2023-02-28T01:50:28;1.93;;;1.40;;
20855;SDS011;63058;49.424;8.420;2023-02-28T01:52:56;3.60;;;1.60;;
20855;SDS011;63058;49.424;8.420;2023-02-28T01:55:26;2.10;;;1.37;;
20855;SDS011;63058;49.424;8.420;2023-02-28T01:57:55;2.87;;;1.77;;
20855;SDS011;63058;49.424;8.420;2023-02-28T02:00:23;3.33;;;1.73;;
20855;SDS011;63058;49.424;8.420;2023-02-28T02:02:53;2.63;;;1.40;;
20855;SDS011;63058;49.424;8.420;2023-02-28T02:05:22;2.40;;;1.47;;
20855;SDS011;63058;49.424;8.420;2023-02-28T02:08:12;2.40;;;1.80;;
20855;SDS011;63058;49.424;8.420;2023-02-28T02:10:50;2.93;;;1.73;;
20855;SDS011;63058;49.424;8.420;2023-02-28T02:19:11;3.47;;;1.60;;
20855;SDS011;63058;49.424;8.420;2023-02-28T02:22:12;2.47;;;1.60;;
20855;SDS011;63058;49.424;8.420;2023-02-28T02:25:38;3.23;;;1.70;;
20855;SDS011;63058;49.424;8.420;2023-02-28T02:39:29;2.60;;;1.77;;
20855;SDS011;63058;49.424;8.420;2023-02-28T02:42:01;2.20;;;1.40;;
20855;SDS011;63058;49.424;8.420;2023-02-28T02:44:48;2.27;;;1.47;;
20855;SDS011;63058;49.424;8.420;2023-02-28T02:47:19;2.87;;;1.60;;
20855;SDS011;63058;49.424;8.420;2023-02-28T02:49:50;3.07;;;1.70;;
20855;SDS011;63058;49.424;8.420;2023-02-28T02:52:18;2.83;;;1.67;;
20855;SDS011;63058;49.424;8.420;2023-02-28T02:54:48;1.83;;;1.53;;
20855;SDS011;63058;49.424;8.420;2023-02-28T02:57:29;3.10;;;1.80;;
20855;SDS011;63058;49.424;8.420;2023-02-28T03:00:21;2.67;;;1.67;;
20855;SDS011;63058;49.424;8.420;2023-02-28T03:02:55;2.60;;;1.50;;
20855;SDS011;63058;49.424;8.420;2023-02-28T03:05:29;2.43;;;1.50;;
20855;SDS011;63058;49.424;8.420;2023-02-28T03:08:17;2.77;;;1.63;;
20855;SDS011;63058;49.424;8.420;2023-02-28T03:10:44;2.90;;;1.77;;
20855;SDS011;63058;49.424;8.420;2023-02-28T03:26:55;3.47;;;2.40;;
20855;SDS011;63058;49.424;8.420;2023-02-28T03:29:33;2.57;;;1.93;;
20855;SDS011;63058;49.424;8.420;2023-02-28T03:34:45;2.03;;;1.80;;
20855;SDS011;63058;49.424;8.420;2023-02-28T03:37:16;2.40;;;1.73;;
20855;SDS011;63058;49.424;8.420;2023-02-28T03:39:47;1.80;;;1.50;;
20855;SDS011;63058;49.424;8.420;2023-02-28T03:42:19;2.90;;;1.50;;
20855;SDS011;63058;49.424;8.420;2023-02-28T03:44:58;3.00;;;2.17;;
20855;SDS011;63058;49.424;8.420;2023-02-28T03:47:35;2.67;;;1.70;;
20855;SDS011;63058;49.424;8.420;2023-02-28T03:52:49;2.87;;;1.90;;
20855;SDS011;63058;49.424;8.420;2023-02-28T03:55:25;2.13;;;1.60;;
20855;SDS011;63058;49.424;8.420;2023-02-28T04:00:34;1.90;;;1.60;;
20855;SDS011;63058;49.424;8.420;2023-02-28T04:03:04;2.67;;;1.87;;
20855;SDS011;63058;49.424;8.420;2023-02-28T04:05:30;3.03;;;2.03;;
20855;SDS011;63058;49.424;8.420;2023-02-28T04:08:03;3.10;;;1.97;;
20855;SDS011;63058;49.424;8.420;2023-02-28T04:10:30;2.33;;;1.60;;
20855;SDS011;63058;49.424;8.420;2023-02-28T04:12:56;2.47;;;1.90;;
20855;SDS011;63058;49.424;8.420;2023-02-28T04:15:21;3.17;;;2.00;;
20855;SDS011;63058;49.424;8.420;2023-02-28T04:17:49;2.23;;;1.60;;
20855;SDS011;63058;49.424;8.420;2023-02-28T04:20:15;2.33;;;1.83;;
20855;SDS011;63058;49.424;8.420;2023-02-28T04:22:41;2.40;;;2.00;;
20855;SDS011;63058;49.424;8.420;2023-02-28T04:25:07;2.67;;;2.03;;
20855;SDS011;63058;49.424;8.420;2023-02-28T04:27:32;2.67;;;2.03;;
20855;SDS011;63058;49.424;8.420;2023-02-28T04:29:58;2.87;;;2.10;;
20855;SDS011;63058;49.424;8.420;2023-02-28T04:32:24;3.43;;;2.20;;
20855;SDS011;63058;49.424;8.420;2023-02-28T04:34:50;2.70;;;2.10;;
20855;SDS011;63058;49.424;8.420;2023-02-28T04:37:15;2.73;;;1.90;;
20855;SDS011;63058;49.424;8.420;2023-02-28T04:39:41;2.67;;;1.87;;
20855;SDS011;63058;49.424;8.420;2023-02-28T04:42:07;2.70;;;2.00;;
20855;SDS011;63058;49.424;8.420;2023-02-28T04:44:33;3.17;;;1.77;;
20855;SDS011;63058;49.424;8.420;2023-02-28T04:46:59;3.20;;;1.90;;
20855;SDS011;63058;49.424;8.420;2023-02-28T04:49:25;2.73;;;1.60;;
20855;SDS011;63058;49.424;8.420;2023-02-28T04:51:51;4.03;;;1.83;;
20855;SDS011;63058;49.424;8.420;2023-02-28T04:54:17;2.57;;;2.00;;
20855;SDS011;63058;49.424;8.420;2023-02-28T04:56:43;2.77;;;1.90;;
20855;SDS011;63058;49.424;8.420;2023-02-28T04:59:09;2.53;;;1.73;;
20855;SDS011;63058;49.424;8.420;2023-02-28T05:01:34;3.53;;;2.53;;
20855;SDS011;63058;49.424;8.420;2023-02-28T05:04:01;3.83;;;2.47;;
20855;SDS011;63058;49.424;8.420;2023-02-28T05:06:29;2.97;;;2.07;;
20855;SDS011;63058;49.424;8.420;2023-02-28T05:08:56;3.27;;;2.03;;
20855;SDS011;63058;49.424;8.420;2023-02-28T05:11:24;2.43;;;1.93;;
20855;SDS011;63058;49.424;8.420;2023-02-28T05:13:50;2.73;;;1.93;;
20855;SDS011;63058;49.424;8.420;2023-02-28T05:16:16;3.23;;;2.23;;
20855;SDS011;63058;49.424;8.420;2023-02-28T05:18:42;3.10;;;2.10;;
20855;SDS011;63058;49.424;8.420;2023-02-28T05:24:13;2.77;;;2.07;;
20855;SDS011;63058;49.424;8.420;2023-02-28T05:26:39;3.30;;;2.30;;
20855;SDS011;63058;49.424;8.420;2023-02-28T05:29:07;3.10;;;2.10;;
20855;SDS011;63058;49.424;8.420;2023-02-28T05:31:34;3.83;;;2.33;;
20855;SDS011;63058;49.424;8.420;2023-02-28T05:34:00;3.70;;;2.20;;
20855;SDS011;63058;49.424;8.420;2023-02-28T05:36:25;4.13;;;2.20;;
20855;SDS011;63058;49.424;8.420;2023-02-28T05:38:51;2.80;;;1.97;;
20855;SDS011;63058;49.424;8.420;2023-02-28T05:41:17;2.70;;;2.10;;
20855;SDS011;63058;49.424;8.420;2023-02-28T05:43:47;3.13;;;2.00;;
20855;SDS011;63058;49.424;8.420;2023-02-28T05:46:13;3.57;;;2.07;;
20855;SDS011;63058;49.424;8.420;2023-02-28T05:48:40;2.67;;;2.17;;
20855;SDS011;63058;49.424;8.420;2023-02-28T05:51:08;2.80;;;1.80;;
20855;SDS011;63058;49.424;8.420;2023-02-28T05:53:34;2.80;;;2.00;;
20855;SDS011;63058;49.424;8.420;2023-02-28T05:56:00;2.40;;;1.90;;
20855;SDS011;63058;49.424;8.420;2023-02-28T05:58:26;2.53;;;1.90;;
20855;SDS011;63058;49.424;8.420;2023-02-28T06:00:55;3.80;;;1.90;;
20855;SDS011;63058;49.424;8.420;2023-02-28T06:03:21;3.00;;;1.77;;
20855;SDS011;63058;49.424;8.420;2023-02-28T06:05:47;2.57;;;1.50;;
20855;SDS011;63058;49.424;8.420;2023-02-28T06:08:12;2.90;;;1.97;;
20855;SDS011;63058;49.424;8.420;2023-02-28T06:10:38;3.07;;;1.97;;
20855;SDS011;63058;49.424;8.420;2023-02-28T06:13:04;3.00;;;2.10;;
20855;SDS011;63058;49.424;8.420;2023-02-28T06:15:30;3.60;;;2.40;;
20855;SDS011;63058;49.424;8.420;2023-02-28T06:17:56;4.03;;;2.10;;
20855;SDS011;63058;49.424;8.420;2023-02-28T06:20:23;3.20;;;2.13;;
20855;SDS011;63058;49.424;8.420;2023-02-28T06:22:51;1.93;;;1.70;;
20855;SDS011;63058;49.424;8.420;2023-02-28T06:25:19;2.17;;;1.57;;
20855;SDS011;63058;49.424;8.420;2023-02-28T06:27:44;4.50;;;2.20;;
20855;SDS011;63058;49.424;8.420;2023-02-28T06:30:10;3.63;;;2.07;;
20855;SDS011;63058;49.424;8.420;2023-02-28T06:32:37;2.57;;;2.00;;
20855;SDS011;63058;49.424;8.420;2023-02-28T06:35:03;2.70;;;1.83;;
20855;SDS011;63058;49.424;8.420;2023-02-28T06:37:30;2.97;;;1.90;;
20855;SDS011;63058;49.424;8.420;2023-02-28T06:39:56;2.87;;;2.00;;
20855;SDS011;63058;49.424;8.420;2023-02-28T06:42:22;2.80;;;2.17;;
20855;SDS011;63058;49.424;8.420;2023-02-28T06:44:54;2.80;;;1.97;;
20855;SDS011;63058;49.424;8.420;2023-02-28T06:47:20;3.30;;;2.17;;
20855;SDS011;63058;49.424;8.420;2023-02-28T06:49:46;3.17;;;2.33;;
20855;SDS011;63058;49.424;8.420;2023-02-28T06:52:11;2.37;;;1.80;;
20855;SDS011;63058;49.424;8.420;2023-02-28T06:54:37;3.30;;;2.07;;
20855;SDS011;63058;49.424;8.420;2023-02-28T06:57:04;3.40;;;2.17;;
20855;SDS011;63058;49.424;8.420;2023-02-28T06:59:30;2.90;;;2.20;;
20855;SDS011;63058;49.424;8.420;2023-02-28T07:01:56;3.93;;;2.40;;
20855;SDS011;63058;49.424;8.420;2023-02-28T07:04:21;3.50;;;2.40;;
20855;SDS011;63058;49.424;8.420;2023-02-28T07:06:47;3.00;;;1.90;;
20855;SDS011;63058;49.424;8.420;2023-02-28T07:09:13;3.37;;;2.17;;
20855;SDS011;63058;49.424;8.420;2023-02-28T07:11:39;3.50;;;2.17;;
20855;SDS011;63058;49.424;8.420;2023-02-28T07:14:05;3.97;;;2.60;;
20855;SDS011;63058;49.424;8.420;2023-02-28T07:16:32;3.17;;;2.10;;
20855;SDS011;63058;49.424;8.420;2023-02-28T07:18:58;4.33;;;2.77;;
20855;SDS011;63058;49.424;8.420;2023-02-28T07:21:23;3.73;;;2.30;;
20855;SDS011;63058;49.424;8.420;2023-02-28T07:23:49;7.13;;;3.40;;
20855;SDS011;63058;49.424;8.420;2023-02-28T07:26:17;7.30;;;3.80;;
20855;SDS011;63058;49.424;8.420;2023-02-28T07:28:44;4.83;;;3.13;;
20855;SDS011;63058;49.424;8.420;2023-02-28T07:31:12;3.60;;;2.60;;
20855;SDS011;63058;49.424;8.420;2023-02-28T07:33:41;4.90;;;3.20;;
20855;SDS011;63058;49.424;8.420;2023-02-28T07:36:08;5.00;;;2.50;;
20855;SDS011;63058;49.424;8.420;2023-02-28T07:38:40;5.53;;;3.53;;
20855;SDS011;63058;49.424;8.420;2023-02-28T07:41:07;3.80;;;2.77;;
20855;SDS011;63058;49.424;8.420;2023-02-28T07:43:33;3.20;;;2.37;;
20855;SDS011;63058;49.424;8.420;2023-02-28T07:46:03;4.30;;;2.27;;
20855;SDS011;63058;49.424;8.420;2023-02-28T07:48:33;3.70;;;2.40;;
20855;SDS011;63058;49.424;8.420;2023-02-28T07:50:59;5.50;;;2.77;;
20855;SDS011;63058;49.424;8.420;2023-02-28T07:53:26;3.27;;;2.37;;
20855;SDS011;63058;49.424;8.420;2023-02-28T07:55:55;5.50;;;2.70;;
20855;SDS011;63058;49.424;8.420;2023-02-28T07:58:26;3.03;;;2.33;;
20855;SDS011;63058;49.424;8.420;2023-02-28T08:00:52;2.83;;;2.13;;
20855;SDS011;63058;49.424;8.420;2023-02-28T08:03:18;7.60;;;3.10;;
20855;SDS011;63058;49.424;8.420;2023-02-28T08:05:45;4.47;;;2.90;;
20855;SDS011;63058;49.424;8.420;2023-02-28T08:08:11;3.50;;;2.40;;
20855;SDS011;63058;49.424;8.420;2023-02-28T08:10:37;3.20;;;2.63;;
20855;SDS011;63058;49.424;8.420;2023-02-28T08:13:02;4.93;;;2.70;;
20855;SDS011;63058;49.424;8.420;2023-02-28T08:15:28;4.07;;;2.63;;
20855;SDS011;63058;49.424;8.420;2023-02-28T08:17:54;3.63;;;2.50;;
20855;SDS011;63058;49.424;8.420;2023-02-28T08:20:21;3.57;;;2.60;;
20855;SDS011;63058;49.424;8.420;2023-02-28T08:22:47;5.93;;;2.63;;
20855;SDS011;63058;49.424;8.420;2023-02-28T08:25:13;6.50;;;2.90;;
20855;SDS011;63058;49.424;8.420;2023-02-28T08:27:39;4.47;;;3.00;;
20855;SDS011;63058;49.424;8.420;2023-02-28T08:30:05;4.17;;;3.00;;
20855;SDS011;63058;49.424;8.420;2023-02-28T08:32:31;3.50;;;2.70;;
20855;SDS011;63058;49.424;8.420;2023-02-28T08:34:58;3.20;;;2.63;;
20855;SDS011;63058;49.424;8.420;2023-02-28T08:37:24;4.77;;;3.47;;
20855;SDS011;63058;49.424;8.420;2023-02-28T08:39:49;6.60;;;4.10;;
20855;SDS011;63058;49.424;8.420;2023-02-28T08:42:15;5.53;;;3.40;;
20855;SDS011;63058;49.424;8.420;2023-02-28T08:44:41;6.03;;;3.50;;
20855;SDS011;63058;49.424;8.420;2023-02-28T08:47:06;4.03;;;3.00;;
20855;SDS011;63058;49.424;8.420;2023-02-28T08:49:32;3.73;;;2.83;;
20855;SDS011;63058;49.424;8.420;2023-02-28T08:51:58;5.10;;;3.73;;
20855;SDS011;63058;49.424;8.420;2023-02-28T08:54:24;4.10;;;3.37;;
20855;SDS011;63058;49.424;8.420;2023-02-28T08:56:49;5.67;;;3.50;;
20855;SDS011;63058;49.424;8.420;2023-02-28T08:59:15;7.73;;;4.33;;
20855;SDS011;63058;49.424;8.420;2023-02-28T09:01:41;5.40;;;3.60;;
20855;SDS011;63058;49.424;8.420;2023-02-28T09:04:08;5.83;;;3.10;;
20855;SDS011;63058;49.424;8.420;2023-02-28T09:06:35;4.57;;;3.10;;
20855;SDS011;63058;49.424;8.420;2023-02-28T09:09:01;4.53;;;3.10;;
20855;SDS011;63058;49.424;8.420;2023-02-28T09:11:29;5.30;;;3.27;;
20855;SDS011;63058;49.424;8.420;2023-02-28T09:13:54;3.63;;;2.77;;
20855;SDS011;63058;49.424;8.420;2023-02-28T09:16:20;4.80;;;3.20;;
20855;SDS011;63058;49.424;8.420;2023-02-28T09:18:46;5.90;;;3.87;;
20855;SDS011;63058;49.424;8.420;2023-02-28T09:21:14;5.60;;;3.87;;
20855;SDS011;63058;49.424;8.420;2023-02-28T09:23:42;4.70;;;3.27;;
20855;SDS011;63058;49.424;8.420;2023-02-28T09:26:13;5.33;;;3.43;;
20855;SDS011;63058;49.424;8.420;2023-02-28T09:28:42;4.87;;;3.30;;
20855;SDS011;63058;49.424;8.420;2023-02-28T09:31:16;3.67;;;2.90;;
20855;SDS011;63058;49.424;8.420;2023-02-28T09:33:50;5.67;;;3.80;;
20855;SDS011;63058;49.424;8.420;2023-02-28T09:36:18;5.03;;;3.37;;
20855;SDS011;63058;49.424;8.420;2023-02-28T09:38:44;5.53;;;3.37;;
20855;SDS011;63058;49.424;8.420;2023-02-28T09:41:15;4.20;;;3.10;;
20855;SDS011;63058;49.424;8.420;2023-02-28T09:43:44;6.33;;;3.40;;
20855;SDS011;63058;49.424;8.420;2023-02-28T09:48:56;3.73;;;2.83;;
20855;SDS011;63058;49.424;8.420;2023-02-28T09:54:00;4.60;;;3.20;;
20855;SDS011;63058;49.424;8.420;2023-02-28T09:56:28;4.67;;;3.43;;
20855;SDS011;63058;49.424;8.420;2023-02-28T10:04:59;5.13;;;3.60;;
20855;SDS011;63058;49.424;8.420;2023-02-28T10:10:22;4.77;;;3.47;;
20855;SDS011;63058;49.424;8.420;2023-02-28T10:12:51;4.93;;;3.20;;
20855;SDS011;63058;49.424;8.420;2023-02-28T10:15:19;3.40;;;2.50;;
20855;SDS011;63058;49.424;8.420;2023-02-28T10:17:49;5.10;;;3.70;;
20855;SDS011;63058;49.424;8.420;2023-02-28T10:20:22;5.13;;;3.47;;
20855;SDS011;63058;49.424;8.420;2023-02-28T10:25:37;5.57;;;3.30;;
20855;SDS011;63058;49.424;8.420;2023-02-28T10:28:13;5.83;;;3.67;;
20855;SDS011;63058;49.424;8.420;2023-02-28T10:30:41;6.80;;;4.30;;
20855;SDS011;63058;49.424;8.420;2023-02-28T10:33:14;4.63;;;3.20;;
20855;SDS011;63058;49.424;8.420;2023-02-28T10:35:45;4.77;;;3.47;;
20855;SDS011;63058;49.424;8.420;2023-02-28T10:38:15;4.97;;;3.63;;
20855;SDS011;63058;49.424;8.420;2023-02-28T10:40:46;4.90;;;3.20;;
20855;SDS011;63058;49.424;8.420;2023-02-28T10:45:38;4.43;;;2.97;;
20855;SDS011;63058;49.424;8.420;2023-02-28T10:48:26;3.97;;;3.00;;
20855;SDS011;63058;49.424;8.420;2023-02-28T10:50:55;4.73;;;3.43;;
20855;SDS011;63058;49.424;8.420;2023-02-28T11:01:22;3.77;;;2.70;;
20855;SDS011;63058;49.424;8.420;2023-02-28T11:03:50;3.63;;;3.03;;
20855;SDS011;63058;49.424;8.420;2023-02-28T11:06:18;4.67;;;3.17;;
20855;SDS011;63058;49.424;8.420;2023-02-28T11:11:21;3.47;;;2.90;;
20855;SDS011;63058;49.424;8.420;2023-02-28T11:13:53;6.68;;;3.45;;
20855;SDS011;63058;49.424;8.420;2023-02-28T11:16:21;3.95;;;3.08;;
20855;SDS011;63058;49.424;8.420;2023-02-28T11:18:58;4.40;;;3.20;;
20855;SDS011;63058;49.424;8.420;2023-02-28T11:21:29;4.82;;;3.30;;
20855;SDS011;63058;49.424;8.420;2023-02-28T11:24:15;4.82;;;3.33;;
20855;SDS011;63058;49.424;8.420;2023-02-28T11:26:57;5.30;;;4.05;;
20855;SDS011;63058;49.424;8.420;2023-02-28T11:29:27;4.68;;;3.42;;
20855;SDS011;63058;49.424;8.420;2023-02-28T11:32:00;4.22;;;3.22;;
20855;SDS011;63058;49.424;8.420;2023-02-28T11:34:43;5.05;;;3.25;;
20855;SDS011;63058;49.424;8.420;2023-02-28T11:37:11;5.82;;;3.90;;
20855;SDS011;63058;49.424;8.420;2023-02-28T11:39:42;4.18;;;3.03;;
20855;SDS011;63058;49.424;8.420;2023-02-28T11:42:19;5.40;;;3.65;;
20855;SDS011;63058;49.424;8.420;2023-02-28T11:56:25;5.38;;;3.63;;
20855;SDS011;63058;49.424;8.420;2023-02-28T12:02:25;3.47;;;3.05;;
20855;SDS011;63058;49.424;8.420;2023-02-28T12:04:56;5.22;;;3.63;;
20855;SDS011;63058;49.424;8.420;2023-02-28T12:10:48;3.55;;;2.75;;
20855;SDS011;63058;49.424;8.420;2023-02-28T12:13:24;4.50;;;3.30;;
20855;SDS011;63058;49.424;8.420;2023-02-28T12:26:54;6.95;;;3.38;;
20855;SDS011;63058;49.424;8.420;2023-02-28T12:29:26;6.15;;;4.63;;
20855;SDS011;63058;49.424;8.420;2023-02-28T12:31:56;4.78;;;3.90;;
20855;SDS011;63058;49.424;8.420;2023-02-28T12:34:37;5.30;;;4.10;;
20855;SDS011;63058;49.424;8.420;2023-02-28T12:37:10;6.22;;;4.72;;
20855;SDS011;63058;49.424;8.420;2023-02-28T12:40:06;5.00;;;3.65;;
20855;SDS011;63058;49.424;8.420;2023-02-28T12:42:45;4.10;;;3.35;;
20855;SDS011;63058;49.424;8.420;2023-02-28T12:45:20;4.13;;;3.40;;
20855;SDS011;63058;49.424;8.420;2023-02-28T12:48:08;6.95;;;3.70;;
20855;SDS011;63058;49.424;8.420;2023-02-28T12:50:39;5.38;;;4.20;;
20855;SDS011;63058;49.424;8.420;2023-02-28T12:53:06;3.92;;;3.22;;
20855;SDS011;63058;49.424;8.420;2023-02-28T12:55:56;4.10;;;3.33;;
20855;SDS011;63058;49.424;8.420;2023-02-28T12:58:36;5.03;;;3.97;;
20855;SDS011;63058;49.424;8.420;2023-02-28T13:04:05;5.30;;;3.85;;
20855;SDS011;63058;49.424;8.420;2023-02-28T13:09:37;5.72;;;4.18;;
20855;SDS011;63058;49.424;8.420;2023-02-28T13:12:14;4.43;;;3.50;;
20855;SDS011;63058;49.424;8.420;2023-02-28T13:14:41;4.63;;;3.53;;
20855;SDS011;63058;49.424;8.420;2023-02-28T13:19:37;3.70;;;3.00;;
20855;SDS011;63058;49.424;8.420;2023-02-28T13:22:18;5.90;;;4.88;;
20855;SDS011;63058;49.424;8.420;2023-02-28T13:25:00;4.95;;;3.85;;
20855;SDS011;63058;49.424;8.420;2023-02-28T13:27:39;4.88;;;3.58;;
20855;SDS011;63058;49.424;8.420;2023-02-28T13:36:08;4.22;;;3.45;;
20855;SDS011;63058;49.424;8.420;2023-02-28T13:38:43;4.97;;;3.22;;
20855;SDS011;63058;49.424;8.420;2023-02-28T14:00:02;5.10;;;3.70;;
20855;SDS011;63058;49.424;8.420;2023-02-28T14:05:09;4.53;;;3.35;;
20855;SDS011;63058;49.424;8.420;2023-02-28T14:07:47;4.45;;;3.50;;
20855;SDS011;63058;49.424;8.420;2023-02-28T14:10:21;5.53;;;3.80;;
20855;SDS011;63058;49.424;8.420;2023-02-28T14:21:09;4.03;;;3.33;;
20855;SDS011;63058;49.424;8.420;2023-02-28T14:35:20;6.53;;;5.20;;
20855;SDS011;63058;49.424;8.420;2023-02-28T14:37:50;6.80;;;5.03;;
20855;SDS011;63058;49.424;8.420;2023-02-28T14:40:21;6.28;;;4.13;;
20855;SDS011;63058;49.424;8.420;2023-02-28T14:42:54;5.07;;;3.80;;
20855;SDS011;63058;49.424;8.420;2023-02-28T14:45:29;5.00;;;4.00;;
20855;SDS011;63058;49.424;8.420;2023-02-28T14:47:55;5.10;;;4.05;;
20855;SDS011;63058;49.424;8.420;2023-02-28T14:50:33;5.60;;;3.92;;
20855;SDS011;63058;49.424;8.420;2023-02-28T14:53:00;4.80;;;3.65;;
20855;SDS011;63058;49.424;8.420;2023-02-28T14:55:31;4.40;;;3.83;;
20855;SDS011;63058;49.424;8.420;2023-02-28T14:58:00;4.35;;;3.60;;
20855;SDS011;63058;49.424;8.420;2023-02-28T15:00:32;6.57;;;3.70;;
20855;SDS011;63058;49.424;8.420;2023-02-28T15:03:01;5.15;;;3.58;;
20855;SDS011;63058;49.424;8.420;2023-02-28T15:05:47;4.78;;;3.47;;
20855;SDS011;63058;49.424;8.420;2023-02-28T15:08:17;4.65;;;3.22;;
20855;SDS011;63058;49.424;8.420;2023-02-28T15:10:54;5.47;;;4.50;;
20855;SDS011;63058;49.424;8.420;2023-02-28T15:13:59;4.28;;;3.63;;
20855;SDS011;63058;49.424;8.420;2023-02-28T15:19:00;7.05;;;5.32;;
20855;SDS011;63058;49.424;8.420;2023-02-28T15:21:33;6.43;;;5.07;;
20855;SDS011;63058;49.424;8.420;2023-02-28T15:24:04;9.05;;;6.32;;
20855;SDS011;63058;49.424;8.420;2023-02-28T15:26:32;5.38;;;4.18;;
20855;SDS011;63058;49.424;8.420;2023-02-28T15:29:02;5.40;;;4.15;;
20855;SDS011;63058;49.424;8.420;2023-02-28T15:31:35;4.82;;;4.03;;
20855;SDS011;63058;49.424;8.420;2023-02-28T15:34:13;4.30;;;3.50;;
20855;SDS011;63058;49.424;8.420;2023-02-28T15:36:45;6.53;;;4.05;;
20855;SDS011;63058;49.424;8.420;2023-02-28T15:39:21;5.00;;;3.65;;
20855;SDS011;63058;49.424;8.420;2023-02-28T15:41:49;4.13;;;3.35;;
20855;SDS011;63058;49.424;8.420;2023-02-28T15:47:06;5.57;;;4.10;;
20855;SDS011;63058;49.424;8.420;2023-02-28T15:49:54;4.30;;;3.53;;
20855;SDS011;63058;49.424;8.420;2023-02-28T15:55:11;5.60;;;4.47;;
20855;SDS011;63058;49.424;8.420;2023-02-28T15:57:47;4.97;;;4.22;;
20855;SDS011;63058;49.424;8.420;2023-02-28T16:00:19;4.95;;;3.45;;
20855;SDS011;63058;49.424;8.420;2023-02-28T16:02:46;3.95;;;3.30;;
20855;SDS011;63058;49.424;8.420;2023-02-28T16:05:21;4.65;;;3.63;;
20855;SDS011;63058;49.424;8.420;2023-02-28T16:08:00;5.15;;;3.95;;
20855;SDS011;63058;49.424;8.420;2023-02-28T16:10:36;4.72;;;3.63;;
20855;SDS011;63058;49.424;8.420;2023-02-28T16:13:02;4.45;;;3.47;;
20855;SDS011;63058;49.424;8.420;2023-02-28T16:15:29;4.50;;;3.60;;
20855;SDS011;63058;49.424;8.420;2023-02-28T16:17:59;5.72;;;3.80;;
20855;SDS011;63058;49.424;8.420;2023-02-28T16:20:26;5.28;;;4.07;;
20855;SDS011;63058;49.424;8.420;2023-02-28T16:22:54;4.97;;;3.65;;
20855;SDS011;63058;49.424;8.420;2023-02-28T16:25:23;4.60;;;3.47;;
20855;SDS011;63058;49.424;8.420;2023-02-28T16:27:54;5.85;;;3.88;;
20855;SDS011;63058;49.424;8.420;2023-02-28T16:30:26;5.43;;;3.55;;
20855;SDS011;63058;49.424;8.420;2023-02-28T16:32:54;4.60;;;3.38;;
20855;SDS011;63058;49.424;8.420;2023-02-28T16:35:21;5.25;;;3.60;;
20855;SDS011;63058;49.424;8.420;2023-02-28T16:37:47;6.27;;;4.40;;
20855;SDS011;63058;49.424;8.420;2023-02-28T16:40:18;6.43;;;4.43;;
20855;SDS011;63058;49.424;8.420;2023-02-28T16:42:47;6.17;;;4.23;;
20855;SDS011;63058;49.424;8.420;2023-02-28T16:45:16;5.97;;;3.80;;
20855;SDS011;63058;49.424;8.420;2023-02-28T16:47:44;5.60;;;3.87;;
20855;SDS011;63058;49.424;8.420;2023-02-28T16:50:20;6.20;;;3.70;;
20855;SDS011;63058;49.424;8.420;2023-02-28T16:52:48;6.93;;;4.00;;
20855;SDS011;63058;49.424;8.420;2023-02-28T16:55:14;5.63;;;3.73;;
20855;SDS011;63058;49.424;8.420;2023-02-28T16:57:40;4.93;;;3.37;;
20855;SDS011;63058;49.424;8.420;2023-02-28T17:00:08;5.07;;;3.57;;
20855;SDS011;63058;49.424;8.420;2023-02-28T17:02:38;6.73;;;4.40;;
20855;SDS011;63058;49.424;8.420;2023-02-28T17:05:04;7.00;;;4.50;;
20855;SDS011;63058;49.424;8.420;2023-02-28T17:07:30;6.90;;;5.33;;
20855;SDS011;63058;49.424;8.420;2023-02-28T17:09:55;6.10;;;4.30;;
20855;SDS011;63058;49.424;8.420;2023-02-28T17:12:21;6.07;;;4.20;;
20855;SDS011;63058;49.424;8.420;2023-02-28T17:14:46;5.87;;;4.07;;
20855;SDS011;63058;49.424;8.420;2023-02-28T17:17:16;5.60;;;3.67;;
20855;SDS011;63058;49.424;8.420;2023-02-28T17:19:44;4.43;;;3.43;;
20855;SDS011;63058;49.424;8.420;2023-02-28T17:22:10;5.77;;;3.90;;
20855;SDS011;63058;49.424;8.420;2023-02-28T17:24:36;4.43;;;3.60;;
20855;SDS011;63058;49.424;8.420;2023-02-28T17:27:02;5.23;;;3.53;;
20855;SDS011;63058;49.424;8.420;2023-02-28T17:29:28;6.00;;;3.70;;
20855;SDS011;63058;49.424;8.420;2023-02-28T17:31:53;5.70;;;3.87;;
20855;SDS011;63058;49.424;8.420;2023-02-28T17:34:20;6.27;;;4.03;;
20855;SDS011;63058;49.424;8.420;2023-02-28T17:36:47;5.57;;;4.00;;
20855;SDS011;63058;49.424;8.420;2023-02-28T17:39:14;9.03;;;4.77;;
20855;SDS011;63058;49.424;8.420;2023-02-28T17:41:44;6.30;;;4.30;;
20855;SDS011;63058;49.424;8.420;2023-02-28T17:44:10;5.80;;;4.00;;
20855;SDS011;63058;49.424;8.420;2023-02-28T17:46:36;6.77;;;4.40;;
20855;SDS011;63058;49.424;8.420;2023-02-28T17:49:01;6.63;;;4.23;;